sensor_id;sensor_type;location;lat;lon;timestamp;P1;durP1;ratioP1;P2;durP2;ratioP2
63316;SDS011;49822;41.468;13.560;2022-08-19T00:01:55;29.40;;;6.28;;
63316;SDS011;49822;41.468;13.560;2022-08-19T00:04:29;37.28;;;7.50;;
63316;SDS011;49822;41.468;13.560;2022-08-19T00:07:04;32.58;;;6.70;;
63316;SDS011;49822;41.468;13.560;2022-08-19T00:09:32;31.03;;;6.57;;
63316;SDS011;49822;41.468;13.560;2022-08-19T00:12:00;30.10;;;7.07;;
63316;SDS011;49822;41.468;13.560;2022-08-19T00:14:28;37.58;;;7.32;;
63316;SDS011;49822;41.468;13.560;2022-08-19T00:16:59;32.53;;;7.57;;
63316;SDS011;49822;41.468;13.560;2022-08-19T00:21:57;42.42;;;8.25;;
63316;SDS011;49822;41.468;13.560;2022-08-19T00:24:25;34.00;;;6.40;;
63316;SDS011;49822;41.468;13.560;2022-08-19T00:26:54;30.67;;;6.43;;
63316;SDS011;49822;41.468;13.560;2022-08-19T00:29:43;29.30;;;6.07;;
63316;SDS011;49822;41.468;13.560;2022-08-19T00:32:18;25.42;;;6.25;;
63316;SDS011;49822;41.468;13.560;2022-08-19T00:34:45;23.98;;;5.47;;
63316;SDS011;49822;41.468;13.560;2022-08-19T00:37:13;31.40;;;6.70;;
63316;SDS011;49822;41.468;13.560;2022-08-19T00:39:40;23.95;;;5.47;;
63316;SDS011;49822;41.468;13.560;2022-08-19T00:42:08;26.48;;;6.53;;
63316;SDS011;49822;41.468;13.560;2022-08-19T00:44:36;31.75;;;6.57;;
63316;SDS011;49822;41.468;13.560;2022-08-19T00:47:03;42.97;;;7.93;;
63316;SDS011;49822;41.468;13.560;2022-08-19T00:49:41;29.10;;;6.18;;
63316;SDS011;49822;41.468;13.560;2022-08-19T00:52:21;25.75;;;5.88;;
63316;SDS011;49822;41.468;13.560;2022-08-19T00:54:52;31.42;;;6.20;;
63316;SDS011;49822;41.468;13.560;2022-08-19T00:57:22;24.45;;;5.55;;
63316;SDS011;49822;41.468;13.560;2022-08-19T00:59:55;23.15;;;5.68;;
63316;SDS011;49822;41.468;13.560;2022-08-19T01:02:29;24.27;;;5.75;;
63316;SDS011;49822;41.468;13.560;2022-08-19T01:04:57;24.02;;;5.00;;
63316;SDS011;49822;41.468;13.560;2022-08-19T01:07:26;26.15;;;5.78;;
63316;SDS011;49822;41.468;13.560;2022-08-19T01:10:03;24.08;;;5.28;;
63316;SDS011;49822;41.468;13.560;2022-08-19T01:12:36;17.08;;;5.57;;
63316;SDS011;49822;41.468;13.560;2022-08-19T01:15:05;30.83;;;5.88;;
63316;SDS011;49822;41.468;13.560;2022-08-19T01:17:35;28.85;;;6.13;;
63316;SDS011;49822;41.468;13.560;2022-08-19T01:20:05;27.97;;;7.17;;
63316;SDS011;49822;41.468;13.560;2022-08-19T01:25:19;25.25;;;5.18;;
63316;SDS011;49822;41.468;13.560;2022-08-19T01:27:52;30.27;;;6.78;;
63316;SDS011;49822;41.468;13.560;2022-08-19T01:30:22;29.42;;;6.03;;
63316;SDS011;49822;41.468;13.560;2022-08-19T01:32:52;23.75;;;6.90;;
63316;SDS011;49822;41.468;13.560;2022-08-19T01:35:22;22.75;;;4.85;;
63316;SDS011;49822;41.468;13.560;2022-08-19T01:38:01;27.08;;;5.45;;
63316;SDS011;49822;41.468;13.560;2022-08-19T01:40:36;34.03;;;5.72;;
63316;SDS011;49822;41.468;13.560;2022-08-19T01:43:06;25.33;;;5.47;;
63316;SDS011;49822;41.468;13.560;2022-08-19T01:45:33;24.00;;;5.88;;
63316;SDS011;49822;41.468;13.560;2022-08-19T01:48:02;29.73;;;6.63;;
63316;SDS011;49822;41.468;13.560;2022-08-19T01:50:30;26.90;;;6.68;;
63316;SDS011;49822;41.468;13.560;2022-08-19T01:52:59;27.73;;;5.70;;
63316;SDS011;49822;41.468;13.560;2022-08-19T01:55:34;28.73;;;7.40;;
63316;SDS011;49822;41.468;13.560;2022-08-19T01:58:08;33.85;;;6.32;;
63316;SDS011;49822;41.468;13.560;2022-08-19T02:00:40;27.92;;;7.03;;
63316;SDS011;49822;41.468;13.560;2022-08-19T02:03:08;31.48;;;5.85;;
63316;SDS011;49822;41.468;13.560;2022-08-19T02:05:38;29.00;;;6.40;;
63316;SDS011;49822;41.468;13.560;2022-08-19T02:08:07;31.65;;;6.28;;
63316;SDS011;49822;41.468;13.560;2022-08-19T02:10:37;32.22;;;5.95;;
63316;SDS011;49822;41.468;13.560;2022-08-19T02:13:07;27.65;;;5.93;;
63316;SDS011;49822;41.468;13.560;2022-08-19T02:15:36;20.90;;;5.40;;
63316;SDS011;49822;41.468;13.560;2022-08-19T02:18:04;20.02;;;5.00;;
63316;SDS011;49822;41.468;13.560;2022-08-19T02:20:31;20.65;;;5.28;;
63316;SDS011;49822;41.468;13.560;2022-08-19T02:22:59;24.58;;;5.50;;
63316;SDS011;49822;41.468;13.560;2022-08-19T02:25:27;27.48;;;6.07;;
63316;SDS011;49822;41.468;13.560;2022-08-19T02:27:57;31.52;;;6.43;;
63316;SDS011;49822;41.468;13.560;2022-08-19T02:30:26;27.00;;;5.22;;
63316;SDS011;49822;41.468;13.560;2022-08-19T02:32:54;22.23;;;6.00;;
63316;SDS011;49822;41.468;13.560;2022-08-19T02:35:22;31.67;;;6.28;;
63316;SDS011;49822;41.468;13.560;2022-08-19T02:37:51;29.45;;;6.20;;
63316;SDS011;49822;41.468;13.560;2022-08-19T02:40:37;33.75;;;5.85;;
63316;SDS011;49822;41.468;13.560;2022-08-19T02:43:05;18.42;;;5.72;;
63316;SDS011;49822;41.468;13.560;2022-08-19T02:45:35;22.45;;;5.68;;
63316;SDS011;49822;41.468;13.560;2022-08-19T02:48:07;25.80;;;5.70;;
63316;SDS011;49822;41.468;13.560;2022-08-19T02:58:30;27.20;;;7.28;;
63316;SDS011;49822;41.468;13.560;2022-08-19T03:00:57;34.67;;;7.10;;
63316;SDS011;49822;41.468;13.560;2022-08-19T03:03:25;26.60;;;6.25;;
63316;SDS011;49822;41.468;13.560;2022-08-19T03:06:11;24.02;;;6.03;;
63316;SDS011;49822;41.468;13.560;2022-08-19T03:08:42;35.13;;;6.30;;
63316;SDS011;49822;41.468;13.560;2022-08-19T03:11:17;33.43;;;7.23;;
63316;SDS011;49822;41.468;13.560;2022-08-19T03:13:46;26.73;;;5.22;;
63316;SDS011;49822;41.468;13.560;2022-08-19T03:16:15;20.90;;;5.93;;
63316;SDS011;49822;41.468;13.560;2022-08-19T03:18:44;22.35;;;6.10;;
63316;SDS011;49822;41.468;13.560;2022-08-19T03:21:20;34.10;;;7.60;;
63316;SDS011;49822;41.468;13.560;2022-08-19T03:23:53;20.13;;;5.22;;
63316;SDS011;49822;41.468;13.560;2022-08-19T03:26:21;22.70;;;5.35;;
63316;SDS011;49822;41.468;13.560;2022-08-19T03:28:49;24.42;;;5.95;;
63316;SDS011;49822;41.468;13.560;2022-08-19T03:31:24;21.67;;;5.32;;
63316;SDS011;49822;41.468;13.560;2022-08-19T03:34:14;30.00;;;6.88;;
63316;SDS011;49822;41.468;13.560;2022-08-19T03:36:44;24.45;;;6.47;;
63316;SDS011;49822;41.468;13.560;2022-08-19T03:39:13;21.92;;;5.15;;
63316;SDS011;49822;41.468;13.560;2022-08-19T03:41:41;37.28;;;6.82;;
63316;SDS011;49822;41.468;13.560;2022-08-19T03:44:14;22.48;;;6.05;;
63316;SDS011;49822;41.468;13.560;2022-08-19T03:46:46;28.70;;;6.40;;
63316;SDS011;49822;41.468;13.560;2022-08-19T03:49:16;27.55;;;6.70;;
63316;SDS011;49822;41.468;13.560;2022-08-19T03:51:46;30.48;;;7.38;;
63316;SDS011;49822;41.468;13.560;2022-08-19T03:54:16;35.97;;;6.80;;
63316;SDS011;49822;41.468;13.560;2022-08-19T03:56:46;25.85;;;5.95;;
63316;SDS011;49822;41.468;13.560;2022-08-19T03:59:19;39.63;;;6.97;;
63316;SDS011;49822;41.468;13.560;2022-08-19T04:01:53;22.48;;;6.65;;
63316;SDS011;49822;41.468;13.560;2022-08-19T04:04:22;25.38;;;7.10;;
63316;SDS011;49822;41.468;13.560;2022-08-19T04:06:54;18.33;;;4.72;;
63316;SDS011;49822;41.468;13.560;2022-08-19T04:09:23;30.10;;;6.63;;
63316;SDS011;49822;41.468;13.560;2022-08-19T04:11:54;22.98;;;5.28;;
63316;SDS011;49822;41.468;13.560;2022-08-19T04:14:23;24.05;;;5.30;;
63316;SDS011;49822;41.468;13.560;2022-08-19T04:16:52;24.50;;;6.15;;
63316;SDS011;49822;41.468;13.560;2022-08-19T04:19:20;23.17;;;6.35;;
63316;SDS011;49822;41.468;13.560;2022-08-19T04:21:50;25.00;;;5.57;;
63316;SDS011;49822;41.468;13.560;2022-08-19T04:24:19;31.58;;;6.22;;
63316;SDS011;49822;41.468;13.560;2022-08-19T04:26:48;25.48;;;5.30;;
63316;SDS011;49822;41.468;13.560;2022-08-19T04:29:18;29.02;;;6.53;;
63316;SDS011;49822;41.468;13.560;2022-08-19T04:31:48;31.08;;;6.57;;
63316;SDS011;49822;41.468;13.560;2022-08-19T04:34:18;22.25;;;5.68;;
63316;SDS011;49822;41.468;13.560;2022-08-19T04:36:51;26.77;;;6.25;;
63316;SDS011;49822;41.468;13.560;2022-08-19T04:39:23;31.33;;;6.20;;
63316;SDS011;49822;41.468;13.560;2022-08-19T04:42:13;23.85;;;5.68;;
63316;SDS011;49822;41.468;13.560;2022-08-19T04:44:59;29.27;;;6.03;;
63316;SDS011;49822;41.468;13.560;2022-08-19T04:47:27;26.90;;;5.35;;
63316;SDS011;49822;41.468;13.560;2022-08-19T04:50:15;25.98;;;5.30;;
63316;SDS011;49822;41.468;13.560;2022-08-19T04:52:44;21.75;;;5.70;;
63316;SDS011;49822;41.468;13.560;2022-08-19T04:55:12;20.77;;;5.53;;
63316;SDS011;49822;41.468;13.560;2022-08-19T04:57:49;16.45;;;5.68;;
63316;SDS011;49822;41.468;13.560;2022-08-19T05:00:18;19.63;;;5.13;;
63316;SDS011;49822;41.468;13.560;2022-08-19T05:02:46;23.88;;;4.88;;
63316;SDS011;49822;41.468;13.560;2022-08-19T05:05:15;29.80;;;5.85;;
63316;SDS011;49822;41.468;13.560;2022-08-19T05:07:44;20.08;;;4.88;;
63316;SDS011;49822;41.468;13.560;2022-08-19T05:10:11;27.98;;;5.97;;
63316;SDS011;49822;41.468;13.560;2022-08-19T05:12:39;23.95;;;5.50;;
63316;SDS011;49822;41.468;13.560;2022-08-19T05:15:07;29.33;;;6.45;;
63316;SDS011;49822;41.468;13.560;2022-08-19T05:17:38;29.50;;;5.82;;
63316;SDS011;49822;41.468;13.560;2022-08-19T05:20:25;20.83;;;5.10;;
63316;SDS011;49822;41.468;13.560;2022-08-19T05:23:11;20.05;;;5.30;;
63316;SDS011;49822;41.468;13.560;2022-08-19T05:25:47;21.08;;;5.82;;
63316;SDS011;49822;41.468;13.560;2022-08-19T05:28:16;32.45;;;7.22;;
63316;SDS011;49822;41.468;13.560;2022-08-19T05:30:45;23.77;;;4.97;;
63316;SDS011;49822;41.468;13.560;2022-08-19T05:33:14;22.05;;;6.13;;
63316;SDS011;49822;41.468;13.560;2022-08-19T05:35:42;24.48;;;5.30;;
63316;SDS011;49822;41.468;13.560;2022-08-19T05:38:10;27.42;;;5.85;;
63316;SDS011;49822;41.468;13.560;2022-08-19T05:40:39;30.67;;;6.13;;
63316;SDS011;49822;41.468;13.560;2022-08-19T05:43:07;32.33;;;6.30;;
63316;SDS011;49822;41.468;13.560;2022-08-19T05:45:39;27.20;;;6.75;;
63316;SDS011;49822;41.468;13.560;2022-08-19T05:48:11;28.15;;;5.97;;
63316;SDS011;49822;41.468;13.560;2022-08-19T05:50:40;23.63;;;6.20;;
63316;SDS011;49822;41.468;13.560;2022-08-19T05:53:08;23.85;;;5.95;;
63316;SDS011;49822;41.468;13.560;2022-08-19T05:55:35;19.60;;;6.18;;
63316;SDS011;49822;41.468;13.560;2022-08-19T05:58:05;14.07;;;4.85;;
63316;SDS011;49822;41.468;13.560;2022-08-19T06:00:34;19.95;;;5.10;;
63316;SDS011;49822;41.468;13.560;2022-08-19T06:03:03;19.92;;;4.63;;
63316;SDS011;49822;41.468;13.560;2022-08-19T06:05:40;18.70;;;4.50;;
63316;SDS011;49822;41.468;13.560;2022-08-19T06:08:19;20.00;;;5.28;;
63316;SDS011;49822;41.468;13.560;2022-08-19T06:11:11;16.80;;;4.45;;
63316;SDS011;49822;41.468;13.560;2022-08-19T06:13:46;19.63;;;4.75;;
63316;SDS011;49822;41.468;13.560;2022-08-19T06:16:26;22.85;;;5.07;;
63316;SDS011;49822;41.468;13.560;2022-08-19T06:18:54;15.95;;;4.55;;
63316;SDS011;49822;41.468;13.560;2022-08-19T06:21:24;19.83;;;4.30;;
63316;SDS011;49822;41.468;13.560;2022-08-19T06:26:22;22.77;;;4.47;;
63316;SDS011;49822;41.468;13.560;2022-08-19T06:28:51;15.70;;;4.13;;
63316;SDS011;49822;41.468;13.560;2022-08-19T06:31:23;25.35;;;5.18;;
63316;SDS011;49822;41.468;13.560;2022-08-19T06:33:54;15.48;;;4.38;;
63316;SDS011;49822;41.468;13.560;2022-08-19T06:36:27;21.85;;;5.60;;
63316;SDS011;49822;41.468;13.560;2022-08-19T06:39:05;22.25;;;6.30;;
63316;SDS011;49822;41.468;13.560;2022-08-19T06:41:39;25.70;;;6.22;;
63316;SDS011;49822;41.468;13.560;2022-08-19T06:44:19;18.55;;;4.53;;
63316;SDS011;49822;41.468;13.560;2022-08-19T06:46:52;22.65;;;5.43;;
63316;SDS011;49822;41.468;13.560;2022-08-19T06:49:21;18.07;;;6.07;;
63316;SDS011;49822;41.468;13.560;2022-08-19T06:51:50;21.50;;;5.35;;
63316;SDS011;49822;41.468;13.560;2022-08-19T06:56:58;20.00;;;5.07;;
63316;SDS011;49822;41.468;13.560;2022-08-19T06:59:31;19.33;;;5.30;;
63316;SDS011;49822;41.468;13.560;2022-08-19T07:02:03;19.73;;;4.97;;
63316;SDS011;49822;41.468;13.560;2022-08-19T07:04:34;24.98;;;5.47;;
63316;SDS011;49822;41.468;13.560;2022-08-19T07:07:05;17.42;;;5.80;;
63316;SDS011;49822;41.468;13.560;2022-08-19T07:10:02;14.57;;;4.85;;
63316;SDS011;49822;41.468;13.560;2022-08-19T07:12:33;25.90;;;4.50;;
63316;SDS011;49822;41.468;13.560;2022-08-19T07:15:07;16.63;;;4.70;;
63316;SDS011;49822;41.468;13.560;2022-08-19T07:17:37;17.23;;;4.70;;
63316;SDS011;49822;41.468;13.560;2022-08-19T07:20:08;20.42;;;5.47;;
63316;SDS011;49822;41.468;13.560;2022-08-19T07:22:37;18.37;;;5.23;;
63316;SDS011;49822;41.468;13.560;2022-08-19T07:25:07;25.83;;;5.72;;
63316;SDS011;49822;41.468;13.560;2022-08-19T07:30:06;22.48;;;5.30;;
63316;SDS011;49822;41.468;13.560;2022-08-19T07:32:38;20.73;;;5.38;;
63316;SDS011;49822;41.468;13.560;2022-08-19T07:35:07;22.08;;;5.47;;
63316;SDS011;49822;41.468;13.560;2022-08-19T07:37:36;22.02;;;5.43;;
63316;SDS011;49822;41.468;13.560;2022-08-19T07:40:06;17.58;;;4.90;;
63316;SDS011;49822;41.468;13.560;2022-08-19T07:42:35;21.15;;;6.20;;
63316;SDS011;49822;41.468;13.560;2022-08-19T07:45:04;21.55;;;5.03;;
63316;SDS011;49822;41.468;13.560;2022-08-19T07:50:16;19.13;;;4.05;;
63316;SDS011;49822;41.468;13.560;2022-08-19T07:52:46;23.77;;;5.00;;
63316;SDS011;49822;41.468;13.560;2022-08-19T07:55:22;17.55;;;4.43;;
63316;SDS011;49822;41.468;13.560;2022-08-19T07:58:10;23.13;;;4.93;;
63316;SDS011;49822;41.468;13.560;2022-08-19T08:00:41;20.08;;;4.82;;
63316;SDS011;49822;41.468;13.560;2022-08-19T08:03:10;19.65;;;4.47;;
63316;SDS011;49822;41.468;13.560;2022-08-19T08:05:38;16.90;;;4.60;;
63316;SDS011;49822;41.468;13.560;2022-08-19T08:08:25;15.93;;;4.20;;
63316;SDS011;49822;41.468;13.560;2022-08-19T08:11:14;20.85;;;4.50;;
63316;SDS011;49822;41.468;13.560;2022-08-19T08:13:49;13.23;;;3.80;;
63316;SDS011;49822;41.468;13.560;2022-08-19T08:16:31;12.82;;;3.63;;
63316;SDS011;49822;41.468;13.560;2022-08-19T08:19:14;15.13;;;3.50;;
63316;SDS011;49822;41.468;13.560;2022-08-19T08:21:52;12.88;;;3.67;;
63316;SDS011;49822;41.468;13.560;2022-08-19T08:24:23;12.55;;;3.45;;
63316;SDS011;49822;41.468;13.560;2022-08-19T08:26:54;14.70;;;3.78;;
63316;SDS011;49822;41.468;13.560;2022-08-19T08:29:23;9.13;;;2.92;;
63316;SDS011;49822;41.468;13.560;2022-08-19T08:32:00;8.20;;;2.90;;
63316;SDS011;49822;41.468;13.560;2022-08-19T08:34:28;9.65;;;3.30;;
63316;SDS011;49822;41.468;13.560;2022-08-19T08:36:56;11.40;;;3.28;;
63316;SDS011;49822;41.468;13.560;2022-08-19T08:39:23;6.10;;;2.40;;
63316;SDS011;49822;41.468;13.560;2022-08-19T08:44:54;9.45;;;2.88;;
63316;SDS011;49822;41.468;13.560;2022-08-19T08:47:37;8.18;;;2.67;;
63316;SDS011;49822;41.468;13.560;2022-08-19T08:50:09;12.18;;;2.88;;
63316;SDS011;49822;41.468;13.560;2022-08-19T08:52:47;8.77;;;3.13;;
63316;SDS011;49822;41.468;13.560;2022-08-19T08:55:20;6.95;;;2.83;;
63316;SDS011;49822;41.468;13.560;2022-08-19T08:58:09;8.80;;;2.70;;
63316;SDS011;49822;41.468;13.560;2022-08-19T09:00:44;7.85;;;2.83;;
63316;SDS011;49822;41.468;13.560;2022-08-19T09:03:23;10.18;;;3.08;;
63316;SDS011;49822;41.468;13.560;2022-08-19T09:06:07;11.38;;;4.03;;
63316;SDS011;49822;41.468;13.560;2022-08-19T09:11:16;9.07;;;2.63;;
63316;SDS011;49822;41.468;13.560;2022-08-19T09:17:26;13.52;;;2.70;;
63316;SDS011;49822;41.468;13.560;2022-08-19T09:20:08;7.13;;;2.85;;
63316;SDS011;49822;41.468;13.560;2022-08-19T09:22:51;5.80;;;2.45;;
63316;SDS011;49822;41.468;13.560;2022-08-19T09:25:20;9.20;;;2.90;;
63316;SDS011;49822;41.468;13.560;2022-08-19T09:27:55;5.78;;;2.45;;
63316;SDS011;49822;41.468;13.560;2022-08-19T09:30:34;9.57;;;2.83;;
63316;SDS011;49822;41.468;13.560;2022-08-19T09:33:08;12.25;;;2.95;;
63316;SDS011;49822;41.468;13.560;2022-08-19T09:35:36;8.98;;;2.78;;
63316;SDS011;49822;41.468;13.560;2022-08-19T09:38:20;6.88;;;2.55;;
63316;SDS011;49822;41.468;13.560;2022-08-19T09:40:48;10.15;;;2.55;;
63316;SDS011;49822;41.468;13.560;2022-08-19T09:43:17;5.22;;;2.67;;
63316;SDS011;49822;41.468;13.560;2022-08-19T09:45:59;6.22;;;2.45;;
63316;SDS011;49822;41.468;13.560;2022-08-19T09:48:27;4.22;;;2.10;;
63316;SDS011;49822;41.468;13.560;2022-08-19T09:50:54;9.07;;;2.85;;
63316;SDS011;49822;41.468;13.560;2022-08-19T09:53:30;6.63;;;2.78;;
63316;SDS011;49822;41.468;13.560;2022-08-19T09:56:00;8.18;;;2.67;;
63316;SDS011;49822;41.468;13.560;2022-08-19T10:00:59;7.47;;;2.65;;
63316;SDS011;49822;41.468;13.560;2022-08-19T10:03:28;7.50;;;2.55;;
63316;SDS011;49822;41.468;13.560;2022-08-19T10:05:57;8.20;;;2.90;;
63316;SDS011;49822;41.468;13.560;2022-08-19T10:08:28;10.47;;;2.73;;
63316;SDS011;49822;41.468;13.560;2022-08-19T10:10:59;5.82;;;2.30;;
63316;SDS011;49822;41.468;13.560;2022-08-19T10:13:48;9.50;;;2.58;;
63316;SDS011;49822;41.468;13.560;2022-08-19T10:16:18;7.80;;;3.20;;
63316;SDS011;49822;41.468;13.560;2022-08-19T10:18:56;7.40;;;2.50;;
63316;SDS011;49822;41.468;13.560;2022-08-19T10:21:25;8.23;;;2.85;;
63316;SDS011;49822;41.468;13.560;2022-08-19T10:23:58;6.80;;;2.30;;
63316;SDS011;49822;41.468;13.560;2022-08-19T10:26:29;5.13;;;2.28;;
63316;SDS011;49822;41.468;13.560;2022-08-19T10:28:58;9.38;;;2.38;;
63316;SDS011;49822;41.468;13.560;2022-08-19T10:31:29;5.60;;;2.00;;
63316;SDS011;49822;41.468;13.560;2022-08-19T10:34:17;4.03;;;2.30;;
63316;SDS011;49822;41.468;13.560;2022-08-19T10:36:54;7.60;;;2.50;;
63316;SDS011;49822;41.468;13.560;2022-08-19T10:39:27;7.97;;;2.30;;
63316;SDS011;49822;41.468;13.560;2022-08-19T10:42:05;5.55;;;2.20;;
63316;SDS011;49822;41.468;13.560;2022-08-19T10:45:09;6.15;;;2.42;;
63316;SDS011;49822;41.468;13.560;2022-08-19T10:47:37;4.38;;;2.15;;
63316;SDS011;49822;41.468;13.560;2022-08-19T10:50:05;4.40;;;2.67;;
63316;SDS011;49822;41.468;13.560;2022-08-19T10:52:56;4.90;;;1.85;;
63316;SDS011;49822;41.468;13.560;2022-08-19T10:55:24;5.80;;;2.55;;
63316;SDS011;49822;41.468;13.560;2022-08-19T10:58:17;6.20;;;2.40;;
63316;SDS011;49822;41.468;13.560;2022-08-19T11:03:22;3.17;;;2.10;;
63316;SDS011;49822;41.468;13.560;2022-08-19T11:06:00;7.18;;;2.50;;
63316;SDS011;49822;41.468;13.560;2022-08-19T11:08:34;7.20;;;2.72;;
63316;SDS011;49822;41.468;13.560;2022-08-19T11:11:05;5.97;;;2.00;;
63316;SDS011;49822;41.468;13.560;2022-08-19T11:13:35;6.53;;;2.45;;
63316;SDS011;49822;41.468;13.560;2022-08-19T11:16:08;5.72;;;2.33;;
63316;SDS011;49822;41.468;13.560;2022-08-19T11:18:41;7.13;;;2.50;;
63316;SDS011;49822;41.468;13.560;2022-08-19T11:21:16;5.85;;;2.20;;
63316;SDS011;49822;41.468;13.560;2022-08-19T11:23:49;5.63;;;2.08;;
63316;SDS011;49822;41.468;13.560;2022-08-19T11:26:20;5.35;;;2.17;;
63316;SDS011;49822;41.468;13.560;2022-08-19T11:28:53;8.30;;;2.53;;
63316;SDS011;49822;41.468;13.560;2022-08-19T11:31:23;6.60;;;2.38;;
63316;SDS011;49822;41.468;13.560;2022-08-19T11:33:57;6.10;;;2.53;;
63316;SDS011;49822;41.468;13.560;2022-08-19T11:36:32;6.47;;;2.40;;
63316;SDS011;49822;41.468;13.560;2022-08-19T11:39:02;8.03;;;2.23;;
63316;SDS011;49822;41.468;13.560;2022-08-19T11:41:32;4.10;;;2.42;;
63316;SDS011;49822;41.468;13.560;2022-08-19T11:44:00;6.70;;;2.40;;
63316;SDS011;49822;41.468;13.560;2022-08-19T11:46:30;10.02;;;3.13;;
63316;SDS011;49822;41.468;13.560;2022-08-19T11:49:00;8.57;;;3.00;;
63316;SDS011;49822;41.468;13.560;2022-08-19T11:51:28;6.80;;;2.70;;
63316;SDS011;49822;41.468;13.560;2022-08-19T11:53:57;5.32;;;2.50;;
63316;SDS011;49822;41.468;13.560;2022-08-19T11:56:26;9.23;;;2.65;;
63316;SDS011;49822;41.468;13.560;2022-08-19T11:58:54;6.38;;;2.55;;
63316;SDS011;49822;41.468;13.560;2022-08-19T12:01:24;4.45;;;2.65;;
63316;SDS011;49822;41.468;13.560;2022-08-19T12:03:53;5.22;;;2.40;;
63316;SDS011;49822;41.468;13.560;2022-08-19T12:06:23;5.47;;;2.47;;
63316;SDS011;49822;41.468;13.560;2022-08-19T12:08:55;8.75;;;3.10;;
63316;SDS011;49822;41.468;13.560;2022-08-19T12:11:24;6.47;;;2.75;;
63316;SDS011;49822;41.468;13.560;2022-08-19T12:13:52;8.32;;;2.72;;
63316;SDS011;49822;41.468;13.560;2022-08-19T12:16:21;7.95;;;3.05;;
63316;SDS011;49822;41.468;13.560;2022-08-19T12:18:50;5.15;;;2.47;;
63316;SDS011;49822;41.468;13.560;2022-08-19T12:21:20;7.70;;;2.60;;
63316;SDS011;49822;41.468;13.560;2022-08-19T12:23:50;5.80;;;2.25;;
63316;SDS011;49822;41.468;13.560;2022-08-19T12:26:22;6.80;;;2.83;;
63316;SDS011;49822;41.468;13.560;2022-08-19T12:28:51;5.72;;;2.30;;
63316;SDS011;49822;41.468;13.560;2022-08-19T12:31:19;4.18;;;1.80;;
63316;SDS011;49822;41.468;13.560;2022-08-19T12:33:47;7.25;;;2.60;;
63316;SDS011;49822;41.468;13.560;2022-08-19T12:36:15;8.32;;;2.63;;
63316;SDS011;49822;41.468;13.560;2022-08-19T12:38:45;6.57;;;2.67;;
63316;SDS011;49822;41.468;13.560;2022-08-19T12:41:14;8.88;;;2.40;;
63316;SDS011;49822;41.468;13.560;2022-08-19T12:43:45;7.78;;;2.58;;
63316;SDS011;49822;41.468;13.560;2022-08-19T12:46:15;6.38;;;2.50;;
63316;SDS011;49822;41.468;13.560;2022-08-19T12:48:43;8.23;;;2.85;;
63316;SDS011;49822;41.468;13.560;2022-08-19T12:51:17;6.78;;;2.65;;
63316;SDS011;49822;41.468;13.560;2022-08-19T12:53:46;11.27;;;2.72;;
63316;SDS011;49822;41.468;13.560;2022-08-19T12:56:14;6.82;;;3.10;;
63316;SDS011;49822;41.468;13.560;2022-08-19T12:58:48;7.80;;;2.45;;
63316;SDS011;49822;41.468;13.560;2022-08-19T13:01:19;7.07;;;2.80;;
63316;SDS011;49822;41.468;13.560;2022-08-19T13:03:49;10.23;;;2.97;;
63316;SDS011;49822;41.468;13.560;2022-08-19T13:06:20;9.00;;;3.45;;
63316;SDS011;49822;41.468;13.560;2022-08-19T13:08:48;8.15;;;3.00;;
63316;SDS011;49822;41.468;13.560;2022-08-19T13:11:17;9.07;;;3.00;;
63316;SDS011;49822;41.468;13.560;2022-08-19T13:13:47;7.70;;;2.90;;
63316;SDS011;49822;41.468;13.560;2022-08-19T13:16:17;5.88;;;2.63;;
63316;SDS011;49822;41.468;13.560;2022-08-19T13:18:46;9.18;;;3.17;;
63316;SDS011;49822;41.468;13.560;2022-08-19T13:21:18;7.40;;;2.92;;
63316;SDS011;49822;41.468;13.560;2022-08-19T13:26:16;5.25;;;2.45;;
63316;SDS011;49822;41.468;13.560;2022-08-19T13:28:44;11.30;;;3.00;;
63316;SDS011;49822;41.468;13.560;2022-08-19T13:31:31;7.28;;;3.00;;
63316;SDS011;49822;41.468;13.560;2022-08-19T13:34:19;7.03;;;3.25;;
63316;SDS011;49822;41.468;13.560;2022-08-19T13:36:56;7.45;;;2.60;;
63316;SDS011;49822;41.468;13.560;2022-08-19T13:39:24;6.40;;;2.70;;
63316;SDS011;49822;41.468;13.560;2022-08-19T13:41:52;7.03;;;2.70;;
63316;SDS011;49822;41.468;13.560;2022-08-19T13:44:19;11.35;;;3.13;;
63316;SDS011;49822;41.468;13.560;2022-08-19T13:46:47;10.57;;;2.72;;
63316;SDS011;49822;41.468;13.560;2022-08-19T13:49:19;8.63;;;2.88;;
63316;SDS011;49822;41.468;13.560;2022-08-19T13:51:47;15.25;;;3.38;;
63316;SDS011;49822;41.468;13.560;2022-08-19T13:54:14;10.25;;;3.15;;
63316;SDS011;49822;41.468;13.560;2022-08-19T13:56:43;12.48;;;3.55;;
63316;SDS011;49822;41.468;13.560;2022-08-19T13:59:11;6.55;;;2.92;;
63316;SDS011;49822;41.468;13.560;2022-08-19T14:01:39;10.10;;;2.75;;
63316;SDS011;49822;41.468;13.560;2022-08-19T14:04:07;8.50;;;2.83;;
63316;SDS011;49822;41.468;13.560;2022-08-19T14:06:35;10.40;;;3.17;;
63316;SDS011;49822;41.468;13.560;2022-08-19T14:09:03;8.95;;;2.67;;
63316;SDS011;49822;41.468;13.560;2022-08-19T14:11:31;6.00;;;2.63;;
63316;SDS011;49822;41.468;13.560;2022-08-19T14:13:59;14.00;;;3.28;;
63316;SDS011;49822;41.468;13.560;2022-08-19T14:16:27;6.70;;;2.47;;
63316;SDS011;49822;41.468;13.560;2022-08-19T14:18:54;7.15;;;2.75;;
63316;SDS011;49822;41.468;13.560;2022-08-19T14:21:22;11.18;;;2.47;;
63316;SDS011;49822;41.468;13.560;2022-08-19T14:23:52;6.68;;;2.90;;
63316;SDS011;49822;41.468;13.560;2022-08-19T14:26:20;12.13;;;3.30;;
63316;SDS011;49822;41.468;13.560;2022-08-19T14:28:50;6.60;;;2.55;;
63316;SDS011;49822;41.468;13.560;2022-08-19T14:31:20;9.73;;;2.85;;
63316;SDS011;49822;41.468;13.560;2022-08-19T14:33:55;9.07;;;2.70;;
63316;SDS011;49822;41.468;13.560;2022-08-19T14:36:23;6.95;;;2.85;;
63316;SDS011;49822;41.468;13.560;2022-08-19T14:38:50;8.93;;;2.92;;
63316;SDS011;49822;41.468;13.560;2022-08-19T14:41:19;6.35;;;2.55;;
63316;SDS011;49822;41.468;13.560;2022-08-19T14:43:48;7.78;;;2.50;;
63316;SDS011;49822;41.468;13.560;2022-08-19T14:48:48;5.93;;;2.58;;
63316;SDS011;49822;41.468;13.560;2022-08-19T14:51:19;6.57;;;2.42;;
63316;SDS011;49822;41.468;13.560;2022-08-19T14:53:48;11.80;;;3.15;;
63316;SDS011;49822;41.468;13.560;2022-08-19T14:56:18;6.80;;;3.25;;
63316;SDS011;49822;41.468;13.560;2022-08-19T14:58:48;5.13;;;2.50;;
63316;SDS011;49822;41.468;13.560;2022-08-19T15:01:18;9.45;;;2.80;;
63316;SDS011;49822;41.468;13.560;2022-08-19T15:03:48;5.57;;;2.35;;
63316;SDS011;49822;41.468;13.560;2022-08-19T15:06:16;9.25;;;2.63;;
63316;SDS011;49822;41.468;13.560;2022-08-19T15:08:43;9.73;;;3.08;;
63316;SDS011;49822;41.468;13.560;2022-08-19T15:11:13;7.85;;;2.85;;
63316;SDS011;49822;41.468;13.560;2022-08-19T15:13:42;6.05;;;2.75;;
63316;SDS011;49822;41.468;13.560;2022-08-19T15:19:09;11.95;;;3.22;;
63316;SDS011;49822;41.468;13.560;2022-08-19T15:21:40;7.57;;;2.70;;
63316;SDS011;49822;41.468;13.560;2022-08-19T15:24:08;10.98;;;4.32;;
63316;SDS011;49822;41.468;13.560;2022-08-19T15:26:40;8.45;;;2.92;;
63316;SDS011;49822;41.468;13.560;2022-08-19T15:29:09;9.23;;;2.88;;
63316;SDS011;49822;41.468;13.560;2022-08-19T15:31:39;6.70;;;2.53;;
63316;SDS011;49822;41.468;13.560;2022-08-19T15:34:08;6.68;;;2.60;;
63316;SDS011;49822;41.468;13.560;2022-08-19T15:36:35;7.25;;;2.78;;
63316;SDS011;49822;41.468;13.560;2022-08-19T15:39:03;9.98;;;2.70;;